createdAt,value
2022-08-22T00:02:06.473Z,16.10
2022-08-22T00:02:49.263Z,19.50
2022-08-22T00:03:10.012Z,18.80
2022-08-22T00:04:50.723Z,16.00
2022-08-22T00:07:42.973Z,16.00
2022-08-22T00:11:10.573Z,15.90
2022-08-22T00:13:47.757Z,15.90
2022-08-22T00:16:53.460Z,15.90
2022-08-22T00:19:54.769Z,15.80
2022-08-22T00:22:38.481Z,15.80
2022-08-22T00:25:49.924Z,15.70
2022-08-22T00:28:47.204Z,15.70
2022-08-22T00:31:32.036Z,15.60
2022-08-22T00:34:09.976Z,15.60
2022-08-22T00:36:53.060Z,15.60
2022-08-22T00:39:34.133Z,15.50
2022-08-22T00:42:29.321Z,15.50
2022-08-22T00:45:21.119Z,15.50
2022-08-22T00:48:23.096Z,15.40
2022-08-22T00:51:08.535Z,15.40
2022-08-22T00:54:18.262Z,15.30
2022-08-22T00:57:20.862Z,15.30
2022-08-22T01:00:23.166Z,15.20
2022-08-22T01:03:15.180Z,15.20
2022-08-22T01:06:18.063Z,15.20
2022-08-22T01:08:58.802Z,15.20
2022-08-22T01:11:34.646Z,15.10
2022-08-22T01:14:14.764Z,15.10
2022-08-22T01:17:02.812Z,15.00
2022-08-22T01:20:00.551Z,15.00
2022-08-22T01:23:04.327Z,15.00
2022-08-22T01:25:55.843Z,14.90
2022-08-22T01:28:59.379Z,14.90
2022-08-22T01:31:54.358Z,14.80
2022-08-22T01:34:58.678Z,14.80
2022-08-22T01:37:57.041Z,14.80
2022-08-22T01:41:02.090Z,14.70
2022-08-22T01:44:35.908Z,14.70
2022-08-22T01:47:39.445Z,14.70
2022-08-22T01:50:25.138Z,14.60
2022-08-22T01:53:26.100Z,14.60
2022-08-22T01:56:22.692Z,14.60
2022-08-22T01:59:11.068Z,14.50
2022-08-22T02:01:52.707Z,14.50
2022-08-22T02:04:29.383Z,14.40
2022-08-22T02:07:43.494Z,14.40
2022-08-22T02:10:16.440Z,14.40
2022-08-22T02:13:13.035Z,14.40
2022-08-22T02:15:40.213Z,14.30
2022-08-22T02:18:07.253Z,14.30
2022-08-22T02:21:12.203Z,14.30
2022-08-22T02:23:59.017Z,14.60
2022-08-22T02:27:05.403Z,14.20
2022-08-22T02:30:11.405Z,14.20
2022-08-22T02:32:41.535Z,14.20
2022-08-22T02:35:31.123Z,14.10
2022-08-22T02:38:38.505Z,14.10
2022-08-22T02:41:26.715Z,14.10
2022-08-22T02:44:51.520Z,14.10
2022-08-22T02:47:46.194Z,14.10
2022-08-22T02:50:43.242Z,14.00
2022-08-22T02:53:33.562Z,14.00
2022-08-22T02:56:13.789Z,14.00
2022-08-22T02:59:32.134Z,14.00
2022-08-22T03:02:26.251Z,14.00
2022-08-22T03:05:15.596Z,13.90
2022-08-22T03:08:02.643Z,13.90
2022-08-22T03:10:41.511Z,13.90
2022-08-22T03:13:25.439Z,13.90
2022-08-22T03:16:04.672Z,13.80
2022-08-22T03:18:56.951Z,13.80
2022-08-22T03:21:41.338Z,13.80
2022-08-22T03:24:23.709Z,13.80
2022-08-22T03:27:15.114Z,13.80
2022-08-22T03:30:13.201Z,13.80
2022-08-22T03:32:59.282Z,13.70
2022-08-22T03:35:41.476Z,13.70
2022-08-22T03:38:32.240Z,13.70
2022-08-22T03:41:27.860Z,13.60
2022-08-22T03:44:03.804Z,13.60
2022-08-22T03:46:57.746Z,13.60
2022-08-22T03:50:05.578Z,13.60
2022-08-22T03:53:15.439Z,13.50
2022-08-22T03:56:13.611Z,13.50
2022-08-22T03:59:37.143Z,13.50
2022-08-22T04:02:42.507Z,13.50
2022-08-22T04:06:04.745Z,13.40
2022-08-22T04:09:22.350Z,13.40
2022-08-22T04:11:49.913Z,13.40
2022-08-22T04:15:12.693Z,13.40
2022-08-22T04:17:48.493Z,13.30
2022-08-22T04:20:59.522Z,13.30
2022-08-22T04:24:06.287Z,13.30
2022-08-22T04:27:07.224Z,13.40
2022-08-22T04:29:46.380Z,13.30
2022-08-22T04:32:28.948Z,13.30
2022-08-22T04:35:36.233Z,13.30
2022-08-22T04:38:20.931Z,13.30
2022-08-22T04:41:07.141Z,13.20
2022-08-22T04:43:53.181Z,13.20
2022-08-22T04:46:45.688Z,13.20
2022-08-22T04:49:46.159Z,13.10
2022-08-22T04:52:29.542Z,13.10
2022-08-22T04:55:27.288Z,13.10
2022-08-22T04:58:19.670Z,13.10
2022-08-22T05:01:19.686Z,13.10
2022-08-22T05:04:16.599Z,13.10
2022-08-22T05:06:56.217Z,13.10
2022-08-22T05:09:33.485Z,13.10
2022-08-22T05:12:09.193Z,13.10
2022-08-22T05:15:00.168Z,13.10
2022-08-22T05:17:32.252Z,13.10
2022-08-22T05:20:09.277Z,13.00
2022-08-22T05:22:45.892Z,13.00
2022-08-22T05:25:21.958Z,13.00
2022-08-22T05:27:56.776Z,13.00
2022-08-22T05:30:31.276Z,13.00
2022-08-22T05:33:34.291Z,12.90
2022-08-22T05:36:14.969Z,12.90
2022-08-22T05:38:51.542Z,12.90
2022-08-22T05:41:24.561Z,12.90
2022-08-22T05:43:54.896Z,12.80
2022-08-22T05:46:43.537Z,12.80
2022-08-22T05:49:23.587Z,12.90
2022-08-22T05:52:56.468Z,12.90
2022-08-22T05:55:52.548Z,12.80
2022-08-22T05:58:43.918Z,12.90
2022-08-22T06:01:36.070Z,12.90
2022-08-22T06:04:37.847Z,12.90
2022-08-22T06:07:14.295Z,12.90
2022-08-22T06:09:47.086Z,13.00
2022-08-22T06:12:22.263Z,13.00
2022-08-22T06:15:23.149Z,13.10
2022-08-22T06:17:58.631Z,13.30
2022-08-22T06:20:50.548Z,13.50
2022-08-22T06:23:45.125Z,13.70
2022-08-22T06:26:20.634Z,13.90
2022-08-22T06:28:55.961Z,14.00
2022-08-22T06:31:38.173Z,14.10
2022-08-22T06:34:17.431Z,14.20
2022-08-22T06:36:50.800Z,14.30
2022-08-22T06:39:32.543Z,14.30
2022-08-22T06:42:22.783Z,14.30
2022-08-22T06:45:04.739Z,14.40
2022-08-22T06:48:00.660Z,14.40
2022-08-22T06:50:42.956Z,14.50
2022-08-22T06:53:24.815Z,14.70
2022-08-22T06:56:02.792Z,14.80
2022-08-22T06:58:47.905Z,14.90
2022-08-22T07:01:33.359Z,15.00
2022-08-22T07:04:09.058Z,15.00
2022-08-22T07:06:43.240Z,15.10
2022-08-22T07:09:31.976Z,15.20
2022-08-22T07:12:11.026Z,15.30
2022-08-22T07:14:52.094Z,15.30
2022-08-22T07:17:27.776Z,15.30
2022-08-22T07:20:19.802Z,15.30
2022-08-22T07:23:02.712Z,15.40
2022-08-22T07:25:31.783Z,15.50
2022-08-22T07:28:20.068Z,15.60
2022-08-22T07:31:11.047Z,15.60
2022-08-22T07:33:48.270Z,15.70
2022-08-22T07:36:32.233Z,15.80
2022-08-22T07:39:37.095Z,15.90
2022-08-22T07:42:16.491Z,16.10
2022-08-22T07:45:11.596Z,16.10
2022-08-22T07:48:03.062Z,16.20
2022-08-22T07:51:09.085Z,16.30
2022-08-22T07:54:00.969Z,16.30
2022-08-22T07:56:40.118Z,16.40
2022-08-22T07:59:18.258Z,16.80
2022-08-22T08:01:54.769Z,16.60
2022-08-22T08:04:29.725Z,16.70
2022-08-22T08:07:02.744Z,16.80
2022-08-22T08:09:44.957Z,17.00
2022-08-22T08:12:15.779Z,17.10
2022-08-22T08:14:48.235Z,17.20
2022-08-22T08:17:30.153Z,17.20
2022-08-22T08:20:07.538Z,17.30
2022-08-22T08:22:46.654Z,17.40
2022-08-22T08:25:21.166Z,17.60
2022-08-22T08:28:09.999Z,17.80
2022-08-22T08:31:04.074Z,18.10
2022-08-22T08:33:33.699Z,18.20
2022-08-22T08:36:43.801Z,18.40
2022-08-22T08:39:32.506Z,18.60
2022-08-22T08:42:58.226Z,18.80
2022-08-22T08:46:16.739Z,18.90
2022-08-22T08:49:15.137Z,19.00
2022-08-22T08:52:20.665Z,19.20
2022-08-22T08:55:25.966Z,19.40
2022-08-22T08:58:11.619Z,19.50
2022-08-22T09:01:07.016Z,19.60
2022-08-22T09:07:01.195Z,19.90
2022-08-22T09:13:26.934Z,20.10
2022-08-22T09:19:42.192Z,20.40
2022-08-22T09:23:18.932Z,20.50
2022-08-22T09:26:01.180Z,20.60
2022-08-22T09:28:40.574Z,20.70
2022-08-22T09:31:47.623Z,20.80
2022-08-22T09:34:45.985Z,20.90
2022-08-22T09:37:59.186Z,20.90
2022-08-22T09:40:15.394Z,20.00
2022-08-22T09:40:57.838Z,21.10
2022-08-22T09:43:55.639Z,21.20
2022-08-22T09:53:21.631Z,21.20
2022-08-22T09:56:14.990Z,21.30
2022-08-22T09:59:02.234Z,21.30
2022-08-22T10:01:49.950Z,21.40
2022-08-22T10:04:44.650Z,21.60
2022-08-22T10:07:57.008Z,21.70
2022-08-22T10:14:09.655Z,21.70
2022-08-22T10:17:12.603Z,21.70
2022-08-22T10:19:59.519Z,21.60
2022-08-22T10:22:44.435Z,21.60
2022-08-22T10:28:47.939Z,21.60
2022-08-22T10:31:58.727Z,21.70
2022-08-22T10:37:47.319Z,21.80
2022-08-22T10:40:47.709Z,21.80
2022-08-22T10:43:40.804Z,21.90
2022-08-22T10:46:17.490Z,21.90
2022-08-22T10:49:18.566Z,22.00
2022-08-22T10:55:00.621Z,22.10
2022-08-22T10:58:01.940Z,22.20
2022-08-22T11:00:46.019Z,22.20
2022-08-22T11:03:38.354Z,22.20
2022-08-22T11:06:48.275Z,22.20
2022-08-22T11:09:37.073Z,22.30
2022-08-22T11:12:35.089Z,22.30
2022-08-22T11:15:24.229Z,22.40
2022-08-22T11:18:14.658Z,22.40
2022-08-22T11:21:07.349Z,22.50
2022-08-22T11:24:02.207Z,22.50
2022-08-22T11:27:12.958Z,22.60
2022-08-22T11:30:18.538Z,22.60
2022-08-22T11:33:46.130Z,22.60
2022-08-22T11:36:31.434Z,22.70
2022-08-22T11:39:45.855Z,22.70
2022-08-22T11:42:31.246Z,22.70
2022-08-22T11:45:05.358Z,22.80
2022-08-22T11:47:53.093Z,22.80
2022-08-22T11:50:35.240Z,22.90
2022-08-22T11:53:18.701Z,23.00
2022-08-22T11:56:05.776Z,23.10
2022-08-22T11:58:59.743Z,23.30
2022-08-22T12:01:34.512Z,23.50
2022-08-22T12:04:17.984Z,23.80
2022-08-22T12:07:04.083Z,24.00
2022-08-22T12:10:16.341Z,24.40
2022-08-22T12:13:11.201Z,24.70
2022-08-22T12:16:04.209Z,25.10
2022-08-22T12:18:40.004Z,25.50
2022-08-22T12:21:41.127Z,25.70
2022-08-22T12:24:47.333Z,25.80
2022-08-22T12:27:39.494Z,25.90
2022-08-22T12:31:12.213Z,25.80
2022-08-22T12:34:17.289Z,25.90
2022-08-22T12:37:27.490Z,25.90
2022-08-22T12:40:26.318Z,25.90
2022-08-22T12:43:19.449Z,25.80
2022-08-22T12:46:28.772Z,25.80
2022-08-22T12:49:14.017Z,25.80
2022-08-22T12:52:11.557Z,25.70
2022-08-22T12:55:10.235Z,25.70
2022-08-22T12:57:54.077Z,25.60
2022-08-22T13:00:35.227Z,25.60
2022-08-22T13:03:10.010Z,25.60
2022-08-22T13:05:44.199Z,25.60
2022-08-22T13:08:44.915Z,25.60
2022-08-22T13:11:23.011Z,25.60
2022-08-22T13:14:02.463Z,25.60
2022-08-22T13:16:51.199Z,25.60
2022-08-22T13:19:26.090Z,25.60
2022-08-22T13:22:19.736Z,25.60
2022-08-22T13:25:25.616Z,25.70
2022-08-22T13:28:11.464Z,25.70
2022-08-22T13:30:42.370Z,25.70
2022-08-22T13:33:27.883Z,25.70
2022-08-22T13:36:03.160Z,25.70
2022-08-22T13:38:51.908Z,25.70
2022-08-22T13:41:27.873Z,25.80
2022-08-22T13:44:39.227Z,25.80
2022-08-22T13:47:15.042Z,25.80
2022-08-22T13:50:08.286Z,25.90
2022-08-22T13:53:10.094Z,25.80
2022-08-22T13:56:01.008Z,25.90
2022-08-22T13:58:56.171Z,25.90
2022-08-22T14:01:50.655Z,26.10
2022-08-22T14:04:36.406Z,26.20
2022-08-22T14:07:06.334Z,26.30
2022-08-22T14:09:56.401Z,26.40
2022-08-22T14:12:50.255Z,26.60
2022-08-22T14:15:45.924Z,26.70
2022-08-22T14:18:31.706Z,26.90
2022-08-22T14:22:14.428Z,26.90
2022-08-22T14:24:48.307Z,27.10
2022-08-22T14:27:45.680Z,27.20
2022-08-22T14:30:24.442Z,27.40
2022-08-22T14:32:58.196Z,27.50
2022-08-22T14:35:42.033Z,27.50
2022-08-22T14:38:38.617Z,27.50
2022-08-22T14:41:14.561Z,27.40
2022-08-22T14:44:18.903Z,27.30
2022-08-22T14:46:55.237Z,27.30
2022-08-22T14:49:47.849Z,27.20
2022-08-22T14:52:41.393Z,27.20
2022-08-22T14:55:22.620Z,27.20
2022-08-22T14:58:16.416Z,27.10
2022-08-22T15:00:49.991Z,27.10
2022-08-22T15:03:20.334Z,27.20
2022-08-22T15:06:05.064Z,27.20
2022-08-22T15:08:38.787Z,27.20
2022-08-22T15:11:18.744Z,27.10
2022-08-22T15:14:12.521Z,27.10
2022-08-22T15:16:55.378Z,27.20
2022-08-22T15:19:33.406Z,27.10
2022-08-22T15:22:19.661Z,27.20
2022-08-22T15:25:23.207Z,27.20
2022-08-22T15:28:17.173Z,27.20
2022-08-22T15:31:05.368Z,27.20
2022-08-22T15:33:45.387Z,27.20
2022-08-22T15:36:27.010Z,27.20
2022-08-22T15:39:28.637Z,27.30
2022-08-22T15:41:57.351Z,27.40
2022-08-22T15:44:35.414Z,27.50
2022-08-22T15:47:10.925Z,27.50
2022-08-22T15:49:58.093Z,27.70
2022-08-22T15:52:32.130Z,27.80
2022-08-22T15:55:07.698Z,27.90
2022-08-22T15:57:42.422Z,28.10
2022-08-22T16:00:33.408Z,28.20
2022-08-22T16:03:09.862Z,28.40
2022-08-22T16:05:47.806Z,28.50
2022-08-22T16:08:32.682Z,28.50
2022-08-22T16:11:03.579Z,28.60
2022-08-22T16:13:30.583Z,28.60
2022-08-22T16:16:00.772Z,28.60
2022-08-22T16:18:33.973Z,28.50
2022-08-22T16:21:23.360Z,28.50
2022-08-22T16:23:51.028Z,28.40
2022-08-22T16:26:30.234Z,28.30
2022-08-22T16:29:18.065Z,28.20
2022-08-22T16:31:48.402Z,28.10
2022-08-22T16:34:21.305Z,28.10
2022-08-22T16:37:03.669Z,28.10
2022-08-22T16:39:41.883Z,28.20
2022-08-22T16:42:23.892Z,28.10
2022-08-22T16:45:06.038Z,28.10
2022-08-22T16:47:33.087Z,28.10
2022-08-22T16:50:18.495Z,28.00
2022-08-22T16:53:37.833Z,28.00
2022-08-22T16:56:31.672Z,28.00
2022-08-22T16:59:22.824Z,27.90
2022-08-22T17:02:06.530Z,28.00
2022-08-22T17:04:54.017Z,28.00
2022-08-22T17:07:33.481Z,28.00
2022-08-22T17:10:10.261Z,28.10
2022-08-22T17:13:06.395Z,28.20
2022-08-22T17:15:56.972Z,28.20
2022-08-22T17:18:42.815Z,28.20
2022-08-22T17:21:37.908Z,28.10
2022-08-22T17:24:38.862Z,27.90
2022-08-22T17:27:25.637Z,27.80
2022-08-22T17:30:01.422Z,27.60
2022-08-22T17:32:41.853Z,27.50
2022-08-22T17:35:33.767Z,27.40
2022-08-22T17:38:22.055Z,27.30
2022-08-22T17:41:22.595Z,27.30
2022-08-22T17:44:04.959Z,27.10
2022-08-22T17:46:50.794Z,27.10
2022-08-22T17:49:49.261Z,27.00
2022-08-22T17:52:42.921Z,26.90
2022-08-22T17:55:23.240Z,26.80
2022-08-22T17:58:10.794Z,26.60
2022-08-22T18:00:51.045Z,26.50
2022-08-22T18:03:38.417Z,26.30
2022-08-22T18:06:16.443Z,26.20
2022-08-22T18:11:51.869Z,26.00
2022-08-22T18:14:29.865Z,25.90
2022-08-22T18:16:59.419Z,25.80
2022-08-22T18:19:58.043Z,25.70
2022-08-22T18:22:34.214Z,25.60
2022-08-22T18:25:13.464Z,25.50
2022-08-22T18:27:58.521Z,25.40
2022-08-22T18:31:16.480Z,25.30
2022-08-22T18:33:57.643Z,25.20
2022-08-22T18:36:34.998Z,25.10
2022-08-22T18:39:20.800Z,25.00
2022-08-22T18:42:52.492Z,24.90
2022-08-22T18:45:45.720Z,24.80
2022-08-22T18:48:59.451Z,24.60
2022-08-22T18:51:38.825Z,24.50
2022-08-22T18:54:06.949Z,24.40
2022-08-22T18:56:54.704Z,24.30
2022-08-22T18:59:47.586Z,24.20
2022-08-22T19:02:58.267Z,24.20
2022-08-22T19:06:05.518Z,24.00
2022-08-22T19:08:42.665Z,23.90
2022-08-22T19:11:41.011Z,23.80
2022-08-22T19:14:22.085Z,23.70
2022-08-22T19:17:25.876Z,23.60
2022-08-22T19:20:46.510Z,23.40
2022-08-22T19:23:32.574Z,23.30
2022-08-22T19:26:44.860Z,23.30
2022-08-22T19:29:18.087Z,23.20
2022-08-22T19:31:53.105Z,23.10
2022-08-22T19:34:28.281Z,23.00
2022-08-22T19:37:32.101Z,22.90
2022-08-22T19:40:10.013Z,22.90
2022-08-22T19:42:44.132Z,22.80
2022-08-22T19:45:26.695Z,22.60
2022-08-22T19:48:14.772Z,22.60
2022-08-22T19:50:43.454Z,22.50
2022-08-22T19:54:02.101Z,22.40
2022-08-22T19:57:07.412Z,22.40
2022-08-22T20:00:09.786Z,22.30
2022-08-22T20:03:09.052Z,22.20
2022-08-22T20:06:33.574Z,22.10
2022-08-22T20:09:22.319Z,21.90
2022-08-22T20:12:02.819Z,21.90
2022-08-22T20:14:37.241Z,21.80
2022-08-22T20:17:25.107Z,21.80
2022-08-22T20:22:52.687Z,21.70
2022-08-22T20:25:42.514Z,21.60
2022-08-22T20:28:41.050Z,21.50
2022-08-22T20:31:22.519Z,21.40
2022-08-22T20:34:00.558Z,21.40
2022-08-22T20:36:29.306Z,21.30
2022-08-22T20:39:27.264Z,21.20
2022-08-22T20:42:10.067Z,21.20
2022-08-22T20:44:47.576Z,21.10
2022-08-22T20:47:36.200Z,21.10
2022-08-22T20:50:12.141Z,21.00
2022-08-22T20:52:54.317Z,21.00
2022-08-22T20:55:31.891Z,20.90
2022-08-22T20:58:04.502Z,20.90
2022-08-22T21:00:48.318Z,20.80
2022-08-22T21:03:48.837Z,20.70
2022-08-22T21:06:35.025Z,20.70
2022-08-22T21:09:38.212Z,20.60
2022-08-22T21:12:09.724Z,20.50
2022-08-22T21:14:46.080Z,20.50
2022-08-22T21:17:34.302Z,20.40
2022-08-22T21:20:23.249Z,20.30
2022-08-22T21:22:51.910Z,20.20
2022-08-22T21:25:19.309Z,20.20
2022-08-22T21:27:48.371Z,20.10
2022-08-22T21:30:25.563Z,20.00
2022-08-22T21:32:56.146Z,20.00
2022-08-22T21:35:33.168Z,19.90
2022-08-22T21:38:02.247Z,19.80
2022-08-22T21:40:37.153Z,19.80
2022-08-22T21:43:11.646Z,19.70
2022-08-22T21:45:38.817Z,19.70
2022-08-22T21:48:34.186Z,19.60
2022-08-22T21:51:40.261Z,19.50
2022-08-22T21:54:25.763Z,19.40
2022-08-22T21:56:58.517Z,19.30
2022-08-22T21:59:52.048Z,19.30
2022-08-22T22:02:31.280Z,19.20
2022-08-22T22:05:06.634Z,19.20
2022-08-22T22:07:41.507Z,19.10
2022-08-22T22:10:14.055Z,19.00
2022-08-22T22:12:43.370Z,19.00
2022-08-22T22:15:17.498Z,18.90
2022-08-22T22:17:44.807Z,18.80
2022-08-22T22:20:13.431Z,18.80
2022-08-22T22:22:46.329Z,18.70
2022-08-22T22:25:39.171Z,18.70
2022-08-22T22:28:10.906Z,18.60
2022-08-22T22:30:38.727Z,18.50
2022-08-22T22:33:06.478Z,18.50
2022-08-22T22:35:34.595Z,18.40
2022-08-22T22:38:02.303Z,18.30
2022-08-22T22:40:30.003Z,18.30
2022-08-22T22:42:57.290Z,18.30
2022-08-22T22:45:24.426Z,18.20
2022-08-22T22:47:51.746Z,18.30
2022-08-22T22:50:18.957Z,18.10
2022-08-22T22:52:46.041Z,18.10
2022-08-22T22:55:24.181Z,18.10
2022-08-22T22:57:58.993Z,18.00
2022-08-22T23:00:31.083Z,18.00
2022-08-22T23:03:05.416Z,17.90
2022-08-22T23:05:33.445Z,17.90
2022-08-22T23:08:01.672Z,17.80
2022-08-22T23:10:31.008Z,17.80
2022-08-22T23:12:58.903Z,17.70
2022-08-22T23:15:26.891Z,17.70
2022-08-22T23:17:54.461Z,17.60
2022-08-22T23:20:22.013Z,17.60
2022-08-22T23:22:49.898Z,17.50
2022-08-22T23:25:17.214Z,17.50
2022-08-22T23:27:44.505Z,17.50
2022-08-22T23:30:15.961Z,17.40
2022-08-22T23:32:43.115Z,17.40
2022-08-22T23:35:10.268Z,17.30
2022-08-22T23:37:37.380Z,17.30
2022-08-22T23:40:08.279Z,17.30
2022-08-22T23:42:35.557Z,17.20
2022-08-22T23:45:03.083Z,17.20
2022-08-22T23:47:30.219Z,17.10
2022-08-22T23:49:57.487Z,17.10
2022-08-22T23:52:25.251Z,17.20
2022-08-22T23:54:54.398Z,17.00
2022-08-22T23:57:27.742Z,17.00
2022-08-22T23:59:57.879Z,16.90
